Time;durP1;ratioP1;P1;durP2;ratioP2;P2;SDS_P1;SDS_P2;PMS_P1;PMS_P2;Temp;Humidity;BMP_temperature;BMP_pressure;BME280_temperature;BME280_humidity;BME280_pressure;Samples;Min_cycle;Max_cycle;Signal;HPM_P1;HPM_P2
2021/12/27 00:01:40;;;;;;;;;;;3.30;94.10;;;;;;5085607;28;19923;-69
2021/12/27 00:04:06;;;;;;;;;;;3.30;94.20;;;;;;5097713;28;19920;-69
2021/12/27 00:06:31;;;;;;;;;;;3.30;94.20;;;;;;5078249;28;19916;-69
2021/12/27 00:08:57;;;;;;;;;;;3.30;94.10;;;;;;5088940;28;19927;-69
2021/12/27 00:11:23;;;;;;;;;;;3.30;94.20;;;;;;5081690;28;19917;-69
2021/12/27 00:13:48;;;;;;;;;;;3.30;94.20;;;;;;5084802;28;19920;-69
2021/12/27 00:16:14;;;;;;;;;;;3.30;94.20;;;;;;5079846;28;19912;-69
2021/12/27 00:18:39;;;;;;;;;;;3.30;94.20;;;;;;5087971;28;20372;-69
2021/12/27 00:21:05;;;;;;;;;;;3.30;94.20;;;;;;5082746;28;19920;-69
2021/12/27 00:23:30;;;;;;;;;;;3.30;94.30;;;;;;5081043;28;20311;-69
2021/12/27 00:25:56;;;;;;;;;;;3.30;94.20;;;;;;5084971;28;19908;-69
2021/12/27 00:28:22;;;;;;;;;;;3.30;94.30;;;;;;5091216;28;20369;-69
2021/12/27 00:30:48;;;;;;;;;;;3.30;94.30;;;;;;5085498;28;19923;-69
2021/12/27 00:33:13;;;;;;;;;;;3.30;94.30;;;;;;5078128;28;19989;-69
2021/12/27 00:35:40;;;;;;;;;;;3.30;94.30;;;;;;5086282;28;19912;-69
2021/12/27 00:38:05;;;;;;;;;;;3.30;94.30;;;;;;5079000;28;19915;-69
2021/12/27 00:40:31;;;;;;;;;;;3.30;94.30;;;;;;5085472;28;20429;-69
2021/12/27 00:42:56;;;;;;;;;;;3.30;94.30;;;;;;5075958;28;19919;-69
2021/12/27 00:45:22;;;;;;;;;;;3.30;94.30;;;;;;5086238;28;19955;-69
2021/12/27 00:47:48;;;;;;;;;;;3.30;94.30;;;;;;5076803;28;19930;-69
2021/12/27 00:50:13;;;;;;;;;;;3.30;94.30;;;;;;5083303;28;20007;-69
2021/12/27 00:52:39;;;;;;;;;;;3.30;94.20;;;;;;5075019;28;19999;-69
2021/12/27 00:55:08;;;;;;;;;;;3.40;94.30;;;;;;5088832;28;20241;-69
2021/12/27 00:57:34;;;;;;;;;;;3.40;94.30;;;;;;5079378;28;19924;-69
2021/12/27 01:00:00;;;;;;;;;;;3.40;94.30;;;;;;5087776;28;20446;-69
2021/12/27 01:02:25;;;;;;;;;;;3.30;94.30;;;;;;5078114;28;19947;-69
2021/12/27 01:04:51;;;;;;;;;;;3.40;94.40;;;;;;5087948;28;19916;-69
2021/12/27 01:07:17;;;;;;;;;;;3.40;94.30;;;;;;5084282;28;20355;-69
2021/12/27 01:12:29;;;;;;;;;;;3.40;94.60;;;;;;5085411;28;19909;-69
2021/12/27 01:15:22;;;;;;;;;;;;;;;;;;;;;
2021/12/27 01:17:36;;;;;;;;;;;3.40;94.30;;;;;;5084206;28;19912;-69
2021/12/27 01:20:07;;;;;;;;;;;3.40;94.30;;;;;;5084162;28;20682;-69
2021/12/27 01:22:32;;;;;;;;;;;3.40;94.30;;;;;;5106345;28;19957;-69
2021/12/27 01:24:58;;;;;;;;;;;3.40;94.40;;;;;;5087111;28;19908;-69
2021/12/27 01:27:24;;;;;;;;;;;3.40;94.40;;;;;;5079248;28;19921;-69
2021/12/27 01:29:50;;;;;;;;;;;3.40;94.40;;;;;;5091692;28;19972;-69
2021/12/27 01:32:15;;;;;;;;;;;3.40;94.40;;;;;;5082094;28;19924;-68
2021/12/27 01:34:41;;;;;;;;;;;3.40;94.30;;;;;;5090436;28;19970;-69
2021/12/27 01:37:06;;;;;;;;;;;3.40;94.40;;;;;;5078849;28;20350;-69
2021/12/27 01:39:32;;;;;;;;;;;3.40;94.40;;;;;;5087196;28;20715;-69
2021/12/27 01:41:57;;;;;;;;;;;3.40;94.40;;;;;;5082415;28;19908;-69
2021/12/27 01:44:23;;;;;;;;;;;3.50;94.40;;;;;;5088125;28;19963;-69
2021/12/27 01:46:51;;;;;;;;;;;3.40;94.40;;;;;;5079985;28;20314;-69
2021/12/27 01:49:17;;;;;;;;;;;3.40;94.40;;;;;;5087814;28;20348;-69
2021/12/27 01:51:44;;;;;;;;;;;3.50;94.40;;;;;;5089448;28;19913;-69
2021/12/27 01:54:09;;;;;;;;;;;3.50;94.40;;;;;;5090355;28;20910;-69
2021/12/27 01:56:35;;;;;;;;;;;3.50;94.40;;;;;;5089696;28;19947;-69
2021/12/27 01:59:00;;;;;;;;;;;3.50;94.40;;;;;;5085105;28;19987;-69
2021/12/27 02:01:26;;;;;;;;;;;3.50;94.40;;;;;;5100363;27;20265;-69
2021/12/27 02:03:52;;;;;;;;;;;3.50;94.40;;;;;;5086372;28;19981;-69
2021/12/27 02:06:18;;;;;;;;;;;3.50;94.40;;;;;;5082072;28;19913;-69
2021/12/27 02:08:44;;;;;;;;;;;3.50;94.30;;;;;;5089532;28;19923;-69
2021/12/27 02:11:11;;;;;;;;;;;3.50;94.40;;;;;;5075372;28;19966;-69
2021/12/27 02:13:44;;;;;;;;;;;3.50;94.40;;;;;;5088055;28;19915;-69
2021/12/27 02:16:11;;;;;;;;;;;3.50;94.40;;;;;;5082646;28;20062;-69
2021/12/27 02:18:37;;;;;;;;;;;3.50;94.40;;;;;;5086268;28;20383;-69
2021/12/27 02:21:03;;;;;;;;;;;3.50;94.30;;;;;;5085760;28;19923;-69
2021/12/27 02:23:29;;;;;;;;;;;3.50;94.30;;;;;;5090586;28;19912;-68
2021/12/27 02:25:54;;;;;;;;;;;3.60;94.40;;;;;;5083417;28;20254;-69
2021/12/27 02:28:20;;;;;;;;;;;3.60;94.30;;;;;;5082609;28;20416;-69
2021/12/27 02:30:47;;;;;;;;;;;3.60;94.40;;;;;;5082100;28;20305;-69
2021/12/27 02:33:13;;;;;;;;;;;3.60;94.40;;;;;;5086775;28;19912;-69
2021/12/27 02:35:40;;;;;;;;;;;3.60;94.30;;;;;;5096595;27;19912;-69
2021/12/27 02:38:17;;;;;;;;;;;3.60;94.30;;;;;;5081007;28;19912;-69
2021/12/27 02:40:43;;;;;;;;;;;3.60;94.30;;;;;;5088157;28;19936;-69
2021/12/27 02:43:09;;;;;;;;;;;3.60;94.40;;;;;;5085388;28;19912;-69
2021/12/27 02:45:36;;;;;;;;;;;3.60;94.40;;;;;;5083928;28;20004;-69
2021/12/27 02:48:02;;;;;;;;;;;3.60;94.40;;;;;;5083841;28;20412;-69
2021/12/27 02:50:28;;;;;;;;;;;3.60;94.40;;;;;;5086313;28;19915;-69
2021/12/27 02:52:54;;;;;;;;;;;3.60;94.40;;;;;;5080626;28;19913;-69
2021/12/27 02:55:19;;;;;;;;;;;3.60;94.50;;;;;;5084858;28;20265;-69
2021/12/27 02:57:46;;;;;;;;;;;3.60;94.40;;;;;;5078092;28;19912;-69
2021/12/27 03:00:17;;;;;;;;;;;3.70;94.40;;;;;;5079313;28;19913;-69
2021/12/27 03:02:43;;;;;;;;;;;3.60;94.50;;;;;;5076601;28;20580;-69
2021/12/27 03:05:09;;;;;;;;;;;3.70;94.50;;;;;;5084109;28;19909;-69
2021/12/27 03:07:35;;;;;;;;;;;3.70;94.50;;;;;;5075669;28;19912;-69
2021/12/27 03:10:00;;;;;;;;;;;3.70;94.40;;;;;;5082858;28;19919;-69
2021/12/27 03:12:26;;;;;;;;;;;3.70;94.50;;;;;;5079826;28;20380;-69
2021/12/27 03:14:51;;;;;;;;;;;3.70;94.50;;;;;;5090195;28;20556;-69
2021/12/27 03:17:16;;;;;;;;;;;3.70;94.50;;;;;;5083635;28;19919;-69
2021/12/27 03:19:42;;;;;;;;;;;3.70;94.50;;;;;;5080779;28;20304;-69
2021/12/27 03:22:07;;;;;;;;;;;3.70;94.40;;;;;;5081959;28;19912;-69
2021/12/27 03:24:33;;;;;;;;;;;3.70;94.50;;;;;;5085601;28;19908;-69
2021/12/27 03:26:58;;;;;;;;;;;3.70;94.50;;;;;;5080664;28;19923;-69
2021/12/27 03:29:24;;;;;;;;;;;3.70;94.50;;;;;;5084644;28;19942;-69
2021/12/27 03:31:54;;;;;;;;;;;3.70;94.50;;;;;;5071703;28;19912;-69
2021/12/27 03:34:19;;;;;;;;;;;3.70;94.50;;;;;;5086784;28;20006;-69
2021/12/27 03:36:45;;;;;;;;;;;3.70;94.50;;;;;;5083271;28;20006;-69
2021/12/27 03:39:10;;;;;;;;;;;3.70;94.50;;;;;;5084344;28;20002;-69
2021/12/27 03:41:36;;;;;;;;;;;3.70;94.50;;;;;;5088266;28;19919;-69
2021/12/27 03:44:02;;;;;;;;;;;3.70;94.50;;;;;;5087534;28;19920;-69
2021/12/27 03:46:28;;;;;;;;;;;3.70;94.50;;;;;;5087126;28;19916;-69
2021/12/27 03:48:53;;;;;;;;;;;3.70;94.50;;;;;;5084840;28;19974;-69
2021/12/27 03:51:19;;;;;;;;;;;3.70;94.50;;;;;;5091498;28;19912;-69
2021/12/27 03:53:44;;;;;;;;;;;3.80;94.50;;;;;;5090593;28;19935;-69
2021/12/27 03:56:10;;;;;;;;;;;3.80;94.50;;;;;;5073801;28;20042;-69
2021/12/27 03:59:18;;;;;;;;;;;3.80;94.50;;;;;;5088079;28;19920;-68
2021/12/27 04:01:40;;;;;;;;;;;3.80;94.50;;;;;;5082790;28;19913;-69
2021/12/27 04:04:05;;;;;;;;;;;3.80;94.50;;;;;;5086586;28;19931;-69
2021/12/27 04:06:31;;;;;;;;;;;3.80;94.50;;;;;;5076273;28;20324;-69
2021/12/27 04:08:56;;;;;;;;;;;3.80;94.40;;;;;;5087713;28;20002;-69
2021/12/27 04:11:22;;;;;;;;;;;3.80;94.50;;;;;;5077180;28;20299;-69
2021/12/27 04:13:47;;;;;;;;;;;3.80;94.40;;;;;;5086745;28;19908;-69
2021/12/27 04:16:13;;;;;;;;;;;3.80;94.50;;;;;;5072416;28;19927;-69
2021/12/27 04:18:38;;;;;;;;;;;3.80;94.50;;;;;;5087766;28;20315;-69
2021/12/27 04:21:04;;;;;;;;;;;3.80;94.50;;;;;;5080242;28;19966;-69
2021/12/27 04:23:29;;;;;;;;;;;3.80;94.50;;;;;;5086988;28;19912;-69
2021/12/27 04:25:55;;;;;;;;;;;3.80;94.50;;;;;;5075734;28;19916;-69
2021/12/27 04:28:20;;;;;;;;;;;3.80;94.50;;;;;;5085604;28;19923;-69
2021/12/27 04:30:46;;;;;;;;;;;3.80;94.50;;;;;;5075430;28;19926;-69
2021/12/27 04:33:12;;;;;;;;;;;3.80;94.50;;;;;;5085615;28;19912;-69
2021/12/27 04:35:37;;;;;;;;;;;3.80;94.50;;;;;;5085280;28;19965;-69
2021/12/27 04:38:04;;;;;;;;;;;3.80;94.50;;;;;;5085490;28;19921;-69
2021/12/27 04:40:32;;;;;;;;;;;3.80;94.50;;;;;;5080838;28;20506;-69
2021/12/27 04:42:59;;;;;;;;;;;3.80;94.50;;;;;;5085140;28;19948;-69
2021/12/27 04:45:24;;;;;;;;;;;3.80;94.50;;;;;;5089008;28;20307;-69
2021/12/27 04:47:50;;;;;;;;;;;3.90;94.50;;;;;;5087038;28;19916;-69
2021/12/27 04:50:15;;;;;;;;;;;3.90;94.50;;;;;;5086027;28;19913;-69
2021/12/27 04:52:41;;;;;;;;;;;3.90;94.50;;;;;;5086314;28;19973;-69
2021/12/27 04:55:08;;;;;;;;;;;3.90;94.60;;;;;;5081081;28;19931;-69
2021/12/27 04:57:33;;;;;;;;;;;3.90;94.60;;;;;;5081259;28;19916;-69
2021/12/27 04:59:59;;;;;;;;;;;3.90;94.60;;;;;;5085066;28;20522;-69
2021/12/27 05:02:24;;;;;;;;;;;3.90;94.60;;;;;;5097595;27;19920;-69
2021/12/27 05:04:50;;;;;;;;;;;3.90;94.60;;;;;;5085204;28;19962;-69
2021/12/27 05:07:15;;;;;;;;;;;3.90;94.60;;;;;;5082246;28;19969;-69
2021/12/27 05:09:41;;;;;;;;;;;3.90;94.80;;;;;;5087593;28;20436;-69
2021/12/27 05:12:07;;;;;;;;;;;3.90;94.60;;;;;;5084810;28;19974;-69
2021/12/27 05:14:32;;;;;;;;;;;3.90;94.70;;;;;;5087488;28;19912;-69
2021/12/27 05:16:58;;;;;;;;;;;3.90;94.70;;;;;;5081492;28;19919;-69
2021/12/27 05:19:24;;;;;;;;;;;3.90;94.70;;;;;;5081892;28;20414;-69
2021/12/27 05:21:49;;;;;;;;;;;3.80;94.70;;;;;;5087112;28;20607;-69
2021/12/27 05:24:15;;;;;;;;;;;3.90;94.80;;;;;;5083525;28;19948;-69
2021/12/27 05:26:40;;;;;;;;;;;3.80;94.80;;;;;;5082010;28;19965;-69
2021/12/27 05:29:06;;;;;;;;;;;3.90;94.80;;;;;;5083443;28;19965;-69
2021/12/27 05:31:31;;;;;;;;;;;3.90;94.90;;;;;;5086217;28;19961;-69
2021/12/27 05:33:57;;;;;;;;;;;3.90;94.90;;;;;;5083705;28;20521;-69
2021/12/27 05:36:23;;;;;;;;;;;3.90;94.90;;;;;;5086619;28;19919;-69
2021/12/27 05:38:48;;;;;;;;;;;3.90;94.90;;;;;;5085139;28;19970;-69
2021/12/27 05:41:14;;;;;;;;;;;3.90;94.90;;;;;;5091845;28;19952;-69
2021/12/27 05:43:39;;;;;;;;;;;3.80;94.90;;;;;;5083191;28;19951;-69
2021/12/27 05:46:05;;;;;;;;;;;3.80;94.90;;;;;;5088918;28;20484;-69
2021/12/27 05:48:30;;;;;;;;;;;3.80;94.90;;;;;;5087590;28;19919;-69
2021/12/27 05:50:56;;;;;;;;;;;3.90;94.90;;;;;;5079897;28;19999;-69
2021/12/27 05:53:21;;;;;;;;;;;3.90;94.90;;;;;;5093165;28;19923;-69
2021/12/27 05:55:47;;;;;;;;;;;3.90;94.90;;;;;;5087519;28;19913;-69
2021/12/27 05:58:13;;;;;;;;;;;3.90;94.90;;;;;;5088097;28;19920;-69
2021/12/27 06:00:39;;;;;;;;;;;3.90;94.90;;;;;;5078875;28;19955;-69
2021/12/27 06:03:05;;;;;;;;;;;3.90;94.90;;;;;;5091343;28;20373;-69
2021/12/27 06:05:31;;;;;;;;;;;3.80;94.80;;;;;;5086279;28;19958;-69
2021/12/27 06:07:56;;;;;;;;;;;3.90;94.90;;;;;;5088793;28;20331;-69
2021/12/27 06:10:22;;;;;;;;;;;3.90;94.80;;;;;;5077947;28;19916;-69
2021/12/27 06:12:48;;;;;;;;;;;3.90;94.90;;;;;;5090604;28;20301;-69
2021/12/27 06:15:13;;;;;;;;;;;3.90;94.80;;;;;;5080064;28;19913;-69
2021/12/27 06:17:39;;;;;;;;;;;3.90;94.90;;;;;;5087089;28;19999;-69
2021/12/27 06:20:07;;;;;;;;;;;3.90;94.90;;;;;;5078625;28;19913;-69
2021/12/27 06:22:33;;;;;;;;;;;3.90;94.90;;;;;;5089495;28;19920;-69
2021/12/27 06:25:03;;;;;;;;;;;3.90;94.80;;;;;;5081744;28;19940;-69
2021/12/27 06:27:31;;;;;;;;;;;3.90;94.80;;;;;;5088083;28;20404;-69
2021/12/27 06:29:56;;;;;;;;;;;3.90;94.80;;;;;;5083484;28;19913;-69
2021/12/27 06:32:21;;;;;;;;;;;3.90;94.80;;;;;;5084900;28;19973;-69
2021/12/27 06:34:47;;;;;;;;;;;4.00;94.90;;;;;;5084424;28;19970;-69
2021/12/27 06:37:12;;;;;;;;;;;4.00;94.90;;;;;;5079029;28;19916;-69
2021/12/27 06:39:38;;;;;;;;;;;3.90;94.90;;;;;;5089150;28;20006;-69
2021/12/27 06:42:05;;;;;;;;;;;3.90;94.90;;;;;;5082969;28;19912;-69
2021/12/27 06:44:31;;;;;;;;;;;4.00;95.00;;;;;;5081311;28;19917;-69
2021/12/27 06:46:59;;;;;;;;;;;4.00;94.90;;;;;;5086568;28;19964;-69
2021/12/27 06:49:28;;;;;;;;;;;3.90;94.90;;;;;;5087848;28;19998;-69
2021/12/27 06:51:53;;;;;;;;;;;4.00;94.90;;;;;;5081345;28;20626;-69
2021/12/27 06:54:19;;;;;;;;;;;4.00;94.90;;;;;;5088793;28;19947;-69
2021/12/27 06:56:45;;;;;;;;;;;4.00;95.10;;;;;;5084068;28;19908;-69
2021/12/27 06:59:10;;;;;;;;;;;4.00;95.00;;;;;;5086001;28;19912;-69
2021/12/27 07:01:36;;;;;;;;;;;4.00;95.20;;;;;;5082441;28;20573;-69
2021/12/27 07:04:01;;;;;;;;;;;4.00;94.90;;;;;;5081525;28;19913;-69
2021/12/27 07:06:27;;;;;;;;;;;4.00;94.90;;;;;;5080828;28;19919;-69
2021/12/27 07:08:52;;;;;;;;;;;4.00;94.90;;;;;;5082485;28;19961;-69
2021/12/27 07:11:18;;;;;;;;;;;4.00;94.90;;;;;;5083368;28;19935;-69
2021/12/27 07:13:43;;;;;;;;;;;4.00;94.90;;;;;;5083002;28;19955;-69
2021/12/27 07:16:09;;;;;;;;;;;4.00;95.00;;;;;;5086063;28;19923;-69
2021/12/27 07:18:34;;;;;;;;;;;4.00;94.90;;;;;;5079108;28;19999;-69
2021/12/27 07:21:00;;;;;;;;;;;4.00;94.90;;;;;;5081637;28;20055;-69
2021/12/27 07:23:25;;;;;;;;;;;4.00;95.20;;;;;;5087012;28;19912;-69
2021/12/27 07:25:50;;;;;;;;;;;4.00;94.90;;;;;;5094915;28;19912;-69
2021/12/27 07:28:16;;;;;;;;;;;4.00;94.90;;;;;;5084620;28;19916;-69
2021/12/27 07:30:42;;;;;;;;;;;4.10;94.90;;;;;;5079054;28;20102;-69
2021/12/27 07:33:08;;;;;;;;;;;4.10;94.90;;;;;;5084281;28;19919;-69
2021/12/27 07:35:33;;;;;;;;;;;4.10;94.90;;;;;;5085548;28;19966;-69
2021/12/27 07:38:00;;;;;;;;;;;4.10;94.90;;;;;;5083400;28;20007;-69
2021/12/27 07:40:26;;;;;;;;;;;4.10;94.90;;;;;;5089944;28;19912;-69
2021/12/27 07:42:51;;;;;;;;;;;4.10;94.90;;;;;;5083164;28;19920;-69
2021/12/27 07:45:17;;;;;;;;;;;4.10;94.90;;;;;;5086052;28;20301;-69
2021/12/27 07:47:42;;;;;;;;;;;4.10;95.00;;;;;;5085674;28;19962;-69
2021/12/27 07:50:08;;;;;;;;;;;4.10;95.00;;;;;;5082119;28;19920;-69
2021/12/27 07:52:33;;;;;;;;;;;4.10;94.90;;;;;;5084998;28;19947;-69
2021/12/27 07:54:59;;;;;;;;;;;4.10;94.90;;;;;;5073878;28;19912;-69
2021/12/27 07:57:24;;;;;;;;;;;4.10;94.90;;;;;;5088172;28;20420;-69
2021/12/27 07:59:50;;;;;;;;;;;4.10;94.90;;;;;;5080789;28;20354;-69
2021/12/27 08:02:16;;;;;;;;;;;4.10;94.90;;;;;;5083862;28;20665;-69
2021/12/27 08:04:42;;;;;;;;;;;4.10;95.00;;;;;;5079574;28;20029;-69
2021/12/27 08:07:07;;;;;;;;;;;4.10;94.90;;;;;;5088477;28;19912;-69
2021/12/27 08:09:33;;;;;;;;;;;4.20;95.00;;;;;;5080985;28;19961;-69
2021/12/27 08:11:58;;;;;;;;;;;4.20;94.90;;;;;;5088421;28;19912;-69
2021/12/27 08:14:24;;;;;;;;;;;4.20;94.90;;;;;;5080553;28;19920;-69
2021/12/27 08:16:50;;;;;;;;;;;4.20;94.90;;;;;;5094451;28;19919;-69
2021/12/27 08:19:15;;;;;;;;;;;4.20;94.90;;;;;;5085394;28;20260;-69
2021/12/27 08:21:41;;;;;;;;;;;4.20;94.90;;;;;;5086854;28;20589;-69
2021/12/27 08:24:07;;;;;;;;;;;4.20;95.10;;;;;;5083232;28;19908;-69
2021/12/27 08:26:32;;;;;;;;;;;4.20;95.10;;;;;;5088407;28;19958;-69
2021/12/27 08:29:00;;;;;;;;;;;4.20;95.10;;;;;;5085290;28;19912;-69
2021/12/27 08:31:25;;;;;;;;;;;4.20;95.10;;;;;;5090318;28;19920;-69
2021/12/27 08:33:51;;;;;;;;;;;4.30;95.10;;;;;;5087372;28;20003;-69
2021/12/27 08:36:16;;;;;;;;;;;4.30;95.00;;;;;;5088835;28;19912;-70
2021/12/27 08:38:44;;;;;;;;;;;4.30;95.10;;;;;;5088093;28;19909;-69
2021/12/27 08:41:10;;;;;;;;;;;4.30;95.10;;;;;;5086991;28;19927;-69
2021/12/27 08:43:35;;;;;;;;;;;4.30;95.20;;;;;;5100077;28;19919;-69
2021/12/27 08:46:01;;;;;;;;;;;4.30;95.10;;;;;;5086494;28;19912;-69
2021/12/27 08:48:27;;;;;;;;;;;4.40;95.00;;;;;;5084957;28;19912;-69
2021/12/27 08:50:53;;;;;;;;;;;4.40;95.10;;;;;;5088218;28;19915;-69
2021/12/27 08:53:18;;;;;;;;;;;4.40;95.10;;;;;;5090579;28;19988;-69
2021/12/27 08:55:44;;;;;;;;;;;4.40;95.10;;;;;;5084867;28;20364;-69
2021/12/27 08:58:09;;;;;;;;;;;4.40;95.20;;;;;;5087385;28;19908;-69
2021/12/27 09:00:35;;;;;;;;;;;4.40;95.20;;;;;;5089002;28;20041;-69
2021/12/27 09:03:00;;;;;;;;;;;4.50;95.30;;;;;;5090256;28;20601;-69
2021/12/27 09:05:26;;;;;;;;;;;4.40;95.30;;;;;;5089973;28;19991;-69
2021/12/27 09:07:51;;;;;;;;;;;4.40;95.30;;;;;;5084762;28;19917;-69
2021/12/27 09:10:17;;;;;;;;;;;4.50;95.40;;;;;;5093656;28;19912;-69
2021/12/27 09:12:44;;;;;;;;;;;4.40;95.30;;;;;;5086386;28;19926;-69
2021/12/27 09:15:10;;;;;;;;;;;4.50;95.40;;;;;;5105561;27;19908;-69
2021/12/27 09:17:36;;;;;;;;;;;4.40;95.40;;;;;;5092918;28;19919;-69
2021/12/27 09:20:02;;;;;;;;;;;4.40;95.30;;;;;;5095360;28;19999;-69
2021/12/27 09:22:28;;;;;;;;;;;4.40;95.20;;;;;;5091377;28;20254;-69
2021/12/27 09:24:53;;;;;;;;;;;4.40;95.30;;;;;;5090126;28;19918;-69
2021/12/27 09:27:19;;;;;;;;;;;4.50;95.30;;;;;;5083441;28;19918;-69
2021/12/27 09:29:45;;;;;;;;;;;4.50;95.30;;;;;;5084419;28;19916;-69
2021/12/27 09:32:11;;;;;;;;;;;4.50;95.30;;;;;;5083760;28;19908;-69
2021/12/27 09:34:37;;;;;;;;;;;4.50;95.30;;;;;;5081157;28;20602;-69
2021/12/27 09:37:03;;;;;;;;;;;4.50;95.30;;;;;;5088420;28;19920;-69
2021/12/27 09:39:29;;;;;;;;;;;4.50;95.30;;;;;;5080603;28;19912;-69
2021/12/27 09:41:54;;;;;;;;;;;4.50;95.30;;;;;;5081845;27;19918;-69
2021/12/27 09:44:20;;;;;;;;;;;4.50;95.30;;;;;;5076245;28;19922;-69
2021/12/27 09:46:46;;;;;;;;;;;4.50;95.30;;;;;;5087722;28;20304;-69
2021/12/27 09:49:12;;;;;;;;;;;4.50;95.30;;;;;;5078405;28;20011;-70
2021/12/27 09:51:40;;;;;;;;;;;4.50;95.30;;;;;;5087583;28;19916;-69
2021/12/27 09:54:06;;;;;;;;;;;4.50;95.30;;;;;;5085291;28;19912;-69
2021/12/27 09:56:31;;;;;;;;;;;4.60;95.40;;;;;;5090654;28;20279;-69
2021/12/27 09:58:57;;;;;;;;;;;4.60;95.30;;;;;;5076319;28;19912;-69
2021/12/27 10:01:22;;;;;;;;;;;4.60;95.30;;;;;;5090196;28;20430;-69
2021/12/27 10:03:56;;;;;;;;;;;4.60;95.30;;;;;;5085820;28;19912;-69
2021/12/27 10:06:22;;;;;;;;;;;4.60;95.30;;;;;;5087383;28;19920;-69
2021/12/27 10:08:52;;;;;;;;;;;4.60;95.30;;;;;;5078964;28;19928;-69
2021/12/27 10:11:38;;;;;;;;;;;4.60;95.30;;;;;;5089991;28;19912;-69
2021/12/27 10:14:09;;;;;;;;;;;4.60;95.30;;;;;;5082430;28;19912;-69
2021/12/27 10:16:55;;;;;;;;;;;4.60;95.30;;;;;;5090039;28;19955;-69
2021/12/27 10:19:22;;;;;;;;;;;4.70;95.40;;;;;;5073529;28;19912;-69
2021/12/27 10:21:49;;;;;;;;;;;4.70;95.40;;;;;;5086794;28;19944;-69
2021/12/27 10:24:18;;;;;;;;;;;4.70;95.20;;;;;;5082016;28;20376;-69
2021/12/27 10:26:45;;;;;;;;;;;4.70;95.20;;;;;;5085178;28;19912;-69
2021/12/27 10:29:13;;;;;;;;;;;4.80;95.30;;;;;;5077647;28;20362;-70
2021/12/27 10:31:57;;;;;;;;;;;4.80;95.10;;;;;;5085369;28;19942;-69
2021/12/27 10:34:23;;;;;;;;;;;4.90;95.40;;;;;;5081463;28;19943;-69
2021/12/27 10:37:04;;;;;;;;;;;4.90;95.10;;;;;;5086708;28;19912;-69
2021/12/27 10:39:48;;;;;;;;;;;4.90;95.10;;;;;;5085238;28;19912;-69
2021/12/27 10:42:15;;;;;;;;;;;4.90;95.00;;;;;;5082310;28;19916;-69
2021/12/27 10:44:41;;;;;;;;;;;5.00;95.00;;;;;;5081511;28;19928;-69
2021/12/27 10:47:42;;;;;;;;;;;5.00;94.80;;;;;;5080072;28;20349;-70
2021/12/27 10:50:16;;;;;;;;;;;5.10;94.90;;;;;;5040038;28;19917;-69
2021/12/27 10:52:44;;;;;;;;;;;5.10;94.80;;;;;;5082260;28;19955;-69
2021/12/27 10:55:10;;;;;;;;;;;5.20;94.80;;;;;;5098970;27;20245;-69
2021/12/27 10:57:36;;;;;;;;;;;5.20;94.90;;;;;;5083578;28;19944;-69
2021/12/27 11:00:20;;;;;;;;;;;5.20;94.90;;;;;;5085164;28;19974;-69
2021/12/27 11:02:45;;;;;;;;;;;5.30;94.90;;;;;;5084987;28;19962;-69
2021/12/27 11:05:15;;;;;;;;;;;5.30;94.80;;;;;;5085373;28;19921;-70
2021/12/27 11:07:41;;;;;;;;;;;5.30;95.00;;;;;;5082374;28;20288;-69
2021/12/27 11:10:07;;;;;;;;;;;5.30;95.00;;;;;;5082617;28;20055;-69
2021/12/27 11:12:33;;;;;;;;;;;5.30;94.90;;;;;;5083935;28;20385;-69
2021/12/27 11:14:58;;;;;;;;;;;5.40;95.00;;;;;;5087336;28;19989;-69
2021/12/27 11:17:24;;;;;;;;;;;5.40;95.00;;;;;;5080754;28;19940;-69
2021/12/27 11:19:49;;;;;;;;;;;5.40;94.80;;;;;;5082758;28;20460;-69
2021/12/27 11:22:15;;;;;;;;;;;5.50;95.10;;;;;;5074596;28;19913;-69
2021/12/27 11:24:43;;;;;;;;;;;5.50;94.80;;;;;;5085139;28;19911;-69
2021/12/27 11:27:14;;;;;;;;;;;5.50;95.00;;;;;;5078325;28;20288;-69
2021/12/27 11:29:40;;;;;;;;;;;5.60;95.10;;;;;;5081813;28;20434;-69
2021/12/27 11:32:15;;;;;;;;;;;5.60;94.80;;;;;;5080701;28;19913;-69
2021/12/27 11:34:54;;;;;;;;;;;5.60;95.00;;;;;;5080989;28;19920;-69
2021/12/27 11:37:19;;;;;;;;;;;5.60;94.90;;;;;;5083867;28;19916;-69
2021/12/27 11:39:45;;;;;;;;;;;5.60;95.10;;;;;;5089239;28;19923;-69
2021/12/27 11:42:11;;;;;;;;;;;5.60;95.20;;;;;;5078594;28;19915;-69
2021/12/27 11:44:39;;;;;;;;;;;5.60;95.30;;;;;;5084523;28;19920;-69
2021/12/27 11:47:05;;;;;;;;;;;5.60;95.40;;;;;;5084052;28;19923;-69
2021/12/27 11:49:34;;;;;;;;;;;5.60;95.50;;;;;;5080758;28;19930;-69
2021/12/27 11:52:14;;;;;;;;;;;5.60;95.70;;;;;;5082167;28;19914;-69
2021/12/27 11:54:48;;;;;;;;;;;5.60;95.50;;;;;;5078015;28;20357;-69
2021/12/27 11:57:34;;;;;;;;;;;5.70;95.50;;;;;;5094923;28;20049;-69
2021/12/27 11:59:59;;;;;;;;;;;5.70;95.50;;;;;;5084795;28;20003;-69
2021/12/27 12:02:25;;;;;;;;;;;5.70;95.40;;;;;;5080287;28;20054;-70
2021/12/27 12:04:55;;;;;;;;;;;5.70;95.40;;;;;;5079540;28;20061;-70
2021/12/27 12:07:33;;;;;;;;;;;5.70;95.50;;;;;;5084179;28;20042;-69
2021/12/27 12:10:14;;;;;;;;;;;5.70;95.50;;;;;;5115158;27;20569;-69
2021/12/27 12:12:40;;;;;;;;;;;5.80;95.60;;;;;;5076562;28;19916;-69
2021/12/27 12:15:06;;;;;;;;;;;5.80;95.70;;;;;;5082665;28;20003;-69
2021/12/27 12:17:52;;;;;;;;;;;5.70;95.60;;;;;;5078861;28;19919;-69
2021/12/27 12:20:24;;;;;;;;;;;5.80;95.60;;;;;;5081164;28;19927;-69
2021/12/27 12:22:58;;;;;;;;;;;5.80;95.60;;;;;;5075783;28;19950;-69
2021/12/27 12:25:24;;;;;;;;;;;5.80;95.60;;;;;;5082608;28;19916;-69
2021/12/27 12:27:53;;;;;;;;;;;5.80;95.50;;;;;;5079967;28;19930;-69
2021/12/27 12:30:19;;;;;;;;;;;5.80;95.60;;;;;;5080505;28;19920;-69
2021/12/27 12:33:00;;;;;;;;;;;5.90;95.60;;;;;;5076811;28;19955;-69
2021/12/27 12:35:40;;;;;;;;;;;5.90;95.60;;;;;;5084281;28;19920;-69
2021/12/27 12:38:13;;;;;;;;;;;5.90;95.60;;;;;;5078358;28;20379;-69
2021/12/27 12:40:38;;;;;;;;;;;5.90;95.60;;;;;;5081788;28;20496;-69
2021/12/27 12:43:04;;;;;;;;;;;5.90;95.60;;;;;;5077838;28;19927;-69
2021/12/27 12:45:30;;;;;;;;;;;5.90;95.50;;;;;;5081925;28;19923;-69
2021/12/27 12:47:56;;;;;;;;;;;5.90;95.50;;;;;;5075747;28;19916;-69
2021/12/27 12:50:22;;;;;;;;;;;6.00;95.60;;;;;;5082835;28;20288;-69
2021/12/27 12:52:55;;;;;;;;;;;6.00;95.50;;;;;;5076109;28;19912;-69
2021/12/27 12:55:21;;;;;;;;;;;6.00;95.50;;;;;;5083697;28;21043;-69
2021/12/27 12:57:48;;;;;;;;;;;6.00;95.40;;;;;;5076186;28;19924;-69
2021/12/27 13:00:19;;;;;;;;;;;6.10;95.50;;;;;;5086479;28;19912;-69
2021/12/27 13:02:45;;;;;;;;;;;6.10;95.60;;;;;;5085203;28;20007;-69
2021/12/27 13:05:13;;;;;;;;;;;6.10;95.60;;;;;;5090186;28;19995;-69
2021/12/27 13:07:45;;;;;;;;;;;6.10;95.50;;;;;;5083019;28;20427;-69
2021/12/27 13:10:16;;;;;;;;;;;6.20;95.40;;;;;;5091678;28;20395;-69
2021/12/27 13:12:42;;;;;;;;;;;6.20;95.30;;;;;;5079301;28;19920;-69
2021/12/27 13:15:10;;;;;;;;;;;6.20;95.40;;;;;;5092885;28;19915;-69
2021/12/27 13:17:37;;;;;;;;;;;6.20;95.30;;;;;;5082376;28;19917;-69
2021/12/27 13:20:12;;;;;;;;;;;6.20;95.40;;;;;;5089978;28;19920;-69
2021/12/27 13:22:40;;;;;;;;;;;6.20;95.50;;;;;;5078313;28;20003;-69
2021/12/27 13:25:06;;;;;;;;;;;6.20;95.60;;;;;;5090660;28;20389;-69
2021/12/27 13:27:32;;;;;;;;;;;6.30;95.50;;;;;;5083758;28;19951;-69
2021/12/27 13:30:06;;;;;;;;;;;6.30;95.60;;;;;;5091894;28;19947;-69
2021/12/27 13:32:32;;;;;;;;;;;6.30;95.60;;;;;;5078126;28;20349;-69
2021/12/27 13:34:57;;;;;;;;;;;6.30;95.40;;;;;;5086994;28;19931;-70
2021/12/27 13:37:23;;;;;;;;;;;6.30;95.60;;;;;;5082061;28;19920;-67
2021/12/27 13:39:48;;;;;;;;;;;6.30;95.70;;;;;;5087556;28;19915;-66
2021/12/27 13:42:15;;;;;;;;;;;6.40;96.30;;;;;;5075142;28;19912;-67
2021/12/27 13:44:41;;;;;;;;;;;6.50;96.50;;;;;;5088272;28;19925;-67
2021/12/27 13:47:08;;;;;;;;;;;6.50;96.60;;;;;;5078960;28;20281;-67
2021/12/27 13:49:34;;;;;;;;;;;6.60;96.90;;;;;;5085031;28;19931;-67
2021/12/27 13:52:04;;;;;;;;;;;6.60;97.30;;;;;;5086714;28;20384;-69
2021/12/27 13:54:43;;;;;;;;;;;6.70;97.90;;;;;;5121843;27;20281;-69
2021/12/27 13:57:08;;;;;;;;;;;6.80;97.80;;;;;;5077416;28;19915;-70
2021/12/27 13:59:35;;;;;;;;;;;6.90;97.70;;;;;;5084098;28;19920;-73
2021/12/27 14:02:01;;;;;;;;;;;7.00;97.70;;;;;;5084099;28;19908;-70
2021/12/27 14:04:28;;;;;;;;;;;7.00;97.60;;;;;;5082485;28;19976;-71
2021/12/27 14:06:54;;;;;;;;;;;7.10;97.50;;;;;;5080241;28;20006;-69
2021/12/27 14:09:21;;;;;;;;;;;7.20;97.60;;;;;;5086255;28;21291;-69
2021/12/27 14:11:50;;;;;;;;;;;7.10;97.40;;;;;;5084878;28;19909;-69
2021/12/27 14:14:31;;;;;;;;;;;7.00;97.40;;;;;;5082074;28;20393;-69
2021/12/27 14:17:05;;;;;;;;;;;7.00;97.40;;;;;;5082628;28;19912;-69
2021/12/27 14:19:31;;;;;;;;;;;6.90;97.50;;;;;;5087878;28;19916;-69
2021/12/27 14:22:01;;;;;;;;;;;6.90;97.50;;;;;;5080086;28;19908;-69
2021/12/27 14:24:31;;;;;;;;;;;6.90;97.50;;;;;;5086999;28;20003;-69
2021/12/27 14:26:58;;;;;;;;;;;6.80;97.50;;;;;;5076369;28;19915;-69
2021/12/27 14:29:25;;;;;;;;;;;6.80;97.40;;;;;;5081836;28;19919;-69
2021/12/27 14:31:55;;;;;;;;;;;6.70;97.60;;;;;;5082958;28;19912;-69
2021/12/27 14:34:39;;;;;;;;;;;6.80;97.30;;;;;;5085213;28;20019;-69